PWSweather.com
Personal Weather Stations
Station Observations
KORLAKEV9
Lakeview, OR 97630

Lakeview, OR 97630

Lat: 42.1961633, Lon: -120.3477325

Elevation: 4800

Station Type: Oregon Scientific WMR968

http://agrisea.net/weather/

Latest ConditionsUpdated 3:00:09 AM PST Wednesday, Dec 12, 2018
Currently Today's Max Today's Min Today's Average
Temperature 32.2°F0.1°C 36.3°F2.4°C 32.2°F0.1°C 34.7°F1.5°C
Dew Point 17.8°F-7.9°C 30.8°F-0.7°C 17.8°F-7.9°C 26.3°F-3.2°C
Winds Calm Calm 10.7 mph -17.2 kmh - - 3.6 mph 5.8 kmh
Wind Gusts 6.3 mph10.1 kmh 19.2 mph30.9 kmh - -
Humidity 55% 82% 54% 72%
Pressure 30.19 in1022.4 mb 30.19 in1022.4 mb 30.04 in1017.3 mb -
Hour Temp Dew Point Humidity Winds Wind Gusts Pressure Precip Precip Rate Daily Precip Total
03:00 AM 32.2°F0.1°C 17.8°F-7.9°C 55% Calm Calm 6.3 mph10.1 kmh 30.19 in1022.4 mb 0.00 in0.0 mm 0.00 in0.0 mm 0.00 in0.0 mm
02:55 AM 32.2°F0.1°C 17.8°F-7.9°C 55% Calm Calm 17.4 mph28.0 kmh 30.19 in1022.4 mb 0.00 in0.0 mm 0.00 in0.0 mm 0.00 in0.0 mm
02:50 AM 32.5°F0.3°C 17.8°F-7.9°C 54% Calm Calm 17.4 mph28.0 kmh 30.16 in1021.3 mb 0.00 in0.0 mm 0.00 in0.0 mm 0.00 in0.0 mm
02:44 AM 32.5°F0.3°C 18.2°F-7.7°C 55% 7.2 mph WSW11.6 kmh WSW 15.2 mph24.5 kmh 30.16 in1021.3 mb 0.00 in0.0 mm 0.00 in0.0 mm 0.00 in0.0 mm
02:40 AM 32.7°F0.4°C 18.8°F-7.3°C 56% 8.1 mph WSW13.0 kmh WSW 15.2 mph24.5 kmh 30.16 in1021.3 mb 0.00 in0.0 mm 0.00 in0.0 mm 0.00 in0.0 mm
02:35 AM 33.1°F0.6°C 19.5°F-6.9°C 57% Calm Calm 11.6 mph18.7 kmh 30.16 in1021.3 mb 0.00 in0.0 mm 0.00 in0.0 mm 0.00 in0.0 mm
02:30 AM 33.6°F0.9°C 20.0°F-6.7°C 57% Calm Calm 12.5 mph20.1 kmh 30.16 in1021.3 mb 0.00 in0.0 mm 0.00 in0.0 mm 0.00 in0.0 mm
02:25 AM 33.8°F1.0°C 20.6°F-6.3°C 58% Calm Calm 12.5 mph20.1 kmh 30.16 in1021.3 mb 0.00 in0.0 mm 0.00 in0.0 mm 0.00 in0.0 mm
02:20 AM 34.2°F1.2°C 21.7°F-5.7°C 60% Calm Calm 11.6 mph18.7 kmh 30.13 in1020.3 mb 0.00 in0.0 mm 0.00 in0.0 mm 0.00 in0.0 mm
02:15 AM 34.5°F1.4°C 22.1°F-5.5°C 60% Calm Calm 15.2 mph24.5 kmh 30.13 in1020.3 mb 0.00 in0.0 mm 0.00 in0.0 mm 0.00 in0.0 mm
02:10 AM 34.5°F1.4°C 22.1°F-5.5°C 60% 10.7 mph SW17.2 kmh SW 19.2 mph30.9 kmh 30.13 in1020.3 mb 0.00 in0.0 mm 0.00 in0.0 mm 0.00 in0.0 mm
02:05 AM 34.9°F1.6°C 24.3°F-4.3°C 65% 8.1 mph W13.0 kmh W 19.2 mph30.9 kmh 30.13 in1020.3 mb 0.00 in0.0 mm 0.00 in0.0 mm 0.00 in0.0 mm
02:00 AM 34.9°F1.6°C 25.8°F-3.4°C 69% 7.2 mph WSW11.6 kmh WSW 16.6 mph26.7 kmh 30.13 in1020.3 mb 0.00 in0.0 mm 0.00 in0.0 mm 0.00 in0.0 mm
01:55 AM 34.9°F1.6°C 27.1°F-2.7°C 73% 7.2 mph SW11.6 kmh SW 16.6 mph26.7 kmh 30.13 in1020.3 mb 0.00 in0.0 mm 0.00 in0.0 mm 0.00 in0.0 mm
01:50 AM 35.1°F1.7°C 27.6°F-2.4°C 74% 9.8 mph WSW15.8 kmh WSW 15.2 mph24.5 kmh 30.10 in1019.3 mb 0.00 in0.0 mm 0.00 in0.0 mm 0.00 in0.0 mm
01:45 AM 35.1°F1.7°C 28.0°F-2.2°C 75% 6.3 mph SW10.1 kmh SW 12.5 mph20.1 kmh 30.10 in1019.3 mb 0.00 in0.0 mm 0.00 in0.0 mm 0.00 in0.0 mm
01:40 AM 34.9°F1.6°C 28.1°F-2.2°C 76% Calm Calm 12.5 mph20.1 kmh 30.10 in1019.3 mb 0.00 in0.0 mm 0.00 in0.0 mm 0.00 in0.0 mm
01:35 AM 34.9°F1.6°C 28.1°F-2.2°C 76% 7.2 mph SW11.6 kmh SW 16.6 mph26.7 kmh 30.10 in1019.3 mb 0.00 in0.0 mm 0.00 in0.0 mm 0.00 in0.0 mm
01:30 AM 34.9°F1.6°C 28.4°F-2.0°C 77% Calm Calm 16.6 mph26.7 kmh 30.10 in1019.3 mb 0.00 in0.0 mm 0.00 in0.0 mm 0.00 in0.0 mm
01:24 AM 34.9°F1.6°C 28.4°F-2.0°C 77% Calm Calm 11.6 mph18.7 kmh 30.10 in1019.3 mb 0.00 in0.0 mm 0.00 in0.0 mm 0.00 in0.0 mm
01:20 AM 34.9°F1.6°C 28.7°F-1.8°C 78% 7.2 mph WSW11.6 kmh WSW 11.6 mph18.7 kmh 30.07 in1018.3 mb 0.00 in0.0 mm 0.00 in0.0 mm 0.00 in0.0 mm
01:15 AM 34.9°F1.6°C 28.7°F-1.8°C 78% 6.3 mph WSW10.1 kmh WSW 9.8 mph15.8 kmh 30.07 in1018.3 mb 0.00 in0.0 mm 0.00 in0.0 mm 0.00 in0.0 mm
01:10 AM 35.1°F1.7°C 28.9°F-1.7°C 78% Calm Calm 9.8 mph15.8 kmh 30.07 in1018.3 mb 0.00 in0.0 mm 0.00 in0.0 mm 0.00 in0.0 mm
01:05 AM 35.1°F1.7°C 29.2°F-1.6°C 79% 9.8 mph SW15.8 kmh SW 10.7 mph17.2 kmh 30.07 in1018.3 mb 0.00 in0.0 mm 0.00 in0.0 mm 0.00 in0.0 mm
12:59 AM 35.2°F1.8°C 29.4°F-1.4°C 79% 9.8 mph WSW15.8 kmh WSW 15.2 mph24.5 kmh 30.07 in1018.3 mb 0.00 in0.0 mm 0.00 in0.0 mm 0.00 in0.0 mm
12:55 AM 35.4°F1.9°C 29.9°F-1.2°C 80% Calm Calm 15.2 mph24.5 kmh 30.07 in1018.3 mb 0.00 in0.0 mm 0.00 in0.0 mm 0.00 in0.0 mm
12:50 AM 35.6°F2.0°C 30.1°F-1.1°C 80% 5.4 mph SW8.7 kmh SW 5.4 mph8.7 kmh 30.07 in1018.3 mb 0.00 in0.0 mm 0.00 in0.0 mm 0.00 in0.0 mm
12:45 AM 35.8°F2.1°C 30.5°F-0.8°C 81% Calm Calm 10.7 mph17.2 kmh 30.07 in1018.3 mb 0.00 in0.0 mm 0.00 in0.0 mm 0.00 in0.0 mm
12:40 AM 35.8°F2.1°C 30.8°F-0.7°C 82% Calm Calm 15.2 mph24.5 kmh 30.07 in1018.3 mb 0.00 in0.0 mm 0.00 in0.0 mm 0.00 in0.0 mm
12:35 AM 35.8°F2.1°C 30.8°F-0.7°C 82% 6.3 mph SSW10.1 kmh SSW 15.2 mph24.5 kmh 30.07 in1018.3 mb 0.00 in0.0 mm 0.00 in0.0 mm 0.00 in0.0 mm
12:30 AM 35.8°F2.1°C 30.5°F-0.8°C 81% 10.7 mph SW17.2 kmh SW 12.5 mph20.1 kmh 30.07 in1018.3 mb 0.00 in0.0 mm 0.00 in0.0 mm 0.00 in0.0 mm
12:25 AM 35.8°F2.1°C 30.5°F-0.8°C 81% Calm Calm 4.5 mph7.2 kmh 30.07 in1018.3 mb 0.00 in0.0 mm 0.00 in0.0 mm 0.00 in0.0 mm
12:20 AM 35.8°F2.1°C 30.5°F-0.8°C 81% 4.5 mph SSE7.2 kmh SSE 8.1 mph13.0 kmh 30.04 in1017.3 mb 0.00 in0.0 mm 0.00 in0.0 mm 0.00 in0.0 mm
12:14 AM 36.0°F2.2°C 30.7°F-0.7°C 81% Calm Calm 8.1 mph13.0 kmh 30.04 in1017.3 mb 0.00 in0.0 mm 0.00 in0.0 mm 0.00 in0.0 mm
12:10 AM 36.1°F2.3°C 30.6°F-0.8°C 80% Calm Calm 8.1 mph13.0 kmh 30.04 in1017.3 mb 0.00 in0.0 mm 0.00 in0.0 mm 0.00 in0.0 mm
12:05 AM 36.1°F2.3°C 30.3°F-0.9°C 79% Calm Calm 13.4 mph21.6 kmh 30.04 in1017.3 mb 0.00 in0.0 mm 0.00 in0.0 mm 0.00 in0.0 mm
12:00 AM 36.3°F2.4°C 30.1°F-1.1°C 78% Calm Calm 13.4 mph21.6 kmh 30.04 in1017.3 mb 0.00 in0.0 mm 0.00 in0.0 mm 0.00 in0.0 mm